sensor_id;sensor_type;location;lat;lon;timestamp;P1;durP1;ratioP1;P2;durP2;ratioP2
20956;SDS011;10637;47.970;7.830;2023-04-15T00:04:39;7.63;;;2.67;;
20956;SDS011;10637;47.970;7.830;2023-04-15T00:09:41;8.30;;;2.47;;
20956;SDS011;10637;47.970;7.830;2023-04-15T00:14:43;10.37;;;2.70;;
20956;SDS011;10637;47.970;7.830;2023-04-15T00:19:45;8.07;;;2.63;;
20956;SDS011;10637;47.970;7.830;2023-04-15T00:24:46;8.00;;;2.50;;
20956;SDS011;10637;47.970;7.830;2023-04-15T00:29:48;10.40;;;2.80;;
20956;SDS011;10637;47.970;7.830;2023-04-15T00:34:50;9.90;;;3.10;;
20956;SDS011;10637;47.970;7.830;2023-04-15T00:39:52;7.73;;;2.90;;
20956;SDS011;10637;47.970;7.830;2023-04-15T00:44:54;6.73;;;2.70;;
20956;SDS011;10637;47.970;7.830;2023-04-15T00:49:56;8.73;;;3.10;;
20956;SDS011;10637;47.970;7.830;2023-04-15T00:54:58;8.63;;;2.40;;
20956;SDS011;10637;47.970;7.830;2023-04-15T01:00:00;7.73;;;2.77;;
20956;SDS011;10637;47.970;7.830;2023-04-15T01:05:03;9.10;;;2.60;;
20956;SDS011;10637;47.970;7.830;2023-04-15T01:10:05;8.30;;;2.40;;
20956;SDS011;10637;47.970;7.830;2023-04-15T01:15:08;9.00;;;3.13;;
20956;SDS011;10637;47.970;7.830;2023-04-15T01:20:11;9.47;;;3.17;;
20956;SDS011;10637;47.970;7.830;2023-04-15T01:25:16;7.07;;;2.60;;
20956;SDS011;10637;47.970;7.830;2023-04-15T01:30:20;11.07;;;2.83;;
20956;SDS011;10637;47.970;7.830;2023-04-15T01:35:21;10.57;;;3.00;;
20956;SDS011;10637;47.970;7.830;2023-04-15T01:40:24;7.30;;;2.60;;
20956;SDS011;10637;47.970;7.830;2023-04-15T01:45:25;9.07;;;2.80;;
20956;SDS011;10637;47.970;7.830;2023-04-15T01:50:27;9.50;;;3.00;;
20956;SDS011;10637;47.970;7.830;2023-04-15T01:55:29;8.57;;;3.50;;
20956;SDS011;10637;47.970;7.830;2023-04-15T02:00:31;8.90;;;3.20;;
20956;SDS011;10637;47.970;7.830;2023-04-15T02:05:33;8.17;;;2.80;;
20956;SDS011;10637;47.970;7.830;2023-04-15T02:10:34;11.50;;;2.90;;
20956;SDS011;10637;47.970;7.830;2023-04-15T02:15:36;7.43;;;2.87;;
20956;SDS011;10637;47.970;7.830;2023-04-15T02:20:38;8.70;;;2.93;;
20956;SDS011;10637;47.970;7.830;2023-04-15T02:25:39;9.93;;;3.17;;
20956;SDS011;10637;47.970;7.830;2023-04-15T02:30:41;6.80;;;2.60;;
20956;SDS011;10637;47.970;7.830;2023-04-15T02:35:43;7.40;;;2.57;;
20956;SDS011;10637;47.970;7.830;2023-04-15T02:40:45;8.60;;;2.70;;
20956;SDS011;10637;47.970;7.830;2023-04-15T02:45:49;12.20;;;3.03;;
20956;SDS011;10637;47.970;7.830;2023-04-15T02:50:52;10.10;;;2.80;;
20956;SDS011;10637;47.970;7.830;2023-04-15T02:55:54;9.47;;;2.60;;
20956;SDS011;10637;47.970;7.830;2023-04-15T03:00:55;7.60;;;2.70;;
20956;SDS011;10637;47.970;7.830;2023-04-15T03:05:57;8.70;;;2.80;;
20956;SDS011;10637;47.970;7.830;2023-04-15T03:10:59;7.73;;;2.60;;
20956;SDS011;10637;47.970;7.830;2023-04-15T03:16:02;10.50;;;2.40;;
20956;SDS011;10637;47.970;7.830;2023-04-15T03:21:05;7.57;;;2.70;;
20956;SDS011;10637;47.970;7.830;2023-04-15T03:26:07;7.50;;;2.60;;
20956;SDS011;10637;47.970;7.830;2023-04-15T03:31:09;7.70;;;2.90;;
20956;SDS011;10637;47.970;7.830;2023-04-15T03:36:10;9.40;;;2.77;;
20956;SDS011;10637;47.970;7.830;2023-04-15T03:41:12;7.23;;;2.90;;
20956;SDS011;10637;47.970;7.830;2023-04-15T03:46:14;7.47;;;2.70;;
20956;SDS011;10637;47.970;7.830;2023-04-15T03:51:16;6.97;;;2.80;;
20956;SDS011;10637;47.970;7.830;2023-04-15T03:56:18;9.77;;;2.80;;
20956;SDS011;10637;47.970;7.830;2023-04-15T04:01:19;9.10;;;3.10;;
20956;SDS011;10637;47.970;7.830;2023-04-15T04:06:21;8.73;;;2.90;;
20956;SDS011;10637;47.970;7.830;2023-04-15T04:11:23;8.77;;;3.00;;
20956;SDS011;10637;47.970;7.830;2023-04-15T04:16:25;7.63;;;2.80;;
20956;SDS011;10637;47.970;7.830;2023-04-15T04:21:27;10.97;;;3.40;;
20956;SDS011;10637;47.970;7.830;2023-04-15T04:26:29;7.63;;;2.90;;
20956;SDS011;10637;47.970;7.830;2023-04-15T04:31:30;7.20;;;2.90;;
20956;SDS011;10637;47.970;7.830;2023-04-15T04:36:32;8.17;;;3.10;;
20956;SDS011;10637;47.970;7.830;2023-04-15T04:41:34;6.97;;;3.00;;
20956;SDS011;10637;47.970;7.830;2023-04-15T04:46:36;7.07;;;2.90;;
20956;SDS011;10637;47.970;7.830;2023-04-15T04:51:37;8.13;;;2.90;;
20956;SDS011;10637;47.970;7.830;2023-04-15T04:56:39;9.10;;;2.97;;
20956;SDS011;10637;47.970;7.830;2023-04-15T05:01:41;8.27;;;3.20;;
20956;SDS011;10637;47.970;7.830;2023-04-15T05:06:43;7.20;;;3.20;;
20956;SDS011;10637;47.970;7.830;2023-04-15T05:11:45;8.50;;;2.87;;
20956;SDS011;10637;47.970;7.830;2023-04-15T05:16:47;8.43;;;3.00;;
20956;SDS011;10637;47.970;7.830;2023-04-15T05:21:49;8.77;;;3.20;;
20956;SDS011;10637;47.970;7.830;2023-04-15T05:26:51;8.50;;;3.20;;
20956;SDS011;10637;47.970;7.830;2023-04-15T05:31:53;11.60;;;3.70;;
20956;SDS011;10637;47.970;7.830;2023-04-15T05:36:54;8.73;;;3.33;;
20956;SDS011;10637;47.970;7.830;2023-04-15T05:41:56;7.77;;;3.00;;
20956;SDS011;10637;47.970;7.830;2023-04-15T05:46:58;8.37;;;3.10;;
20956;SDS011;10637;47.970;7.830;2023-04-15T05:52:01;8.10;;;3.33;;
20956;SDS011;10637;47.970;7.830;2023-04-15T05:57:02;9.57;;;3.47;;
20956;SDS011;10637;47.970;7.830;2023-04-15T06:02:04;7.73;;;3.23;;
20956;SDS011;10637;47.970;7.830;2023-04-15T06:07:06;9.70;;;3.30;;
20956;SDS011;10637;47.970;7.830;2023-04-15T06:12:08;9.13;;;3.17;;
20956;SDS011;10637;47.970;7.830;2023-04-15T06:17:12;8.70;;;2.97;;
20956;SDS011;10637;47.970;7.830;2023-04-15T06:22:15;10.40;;;4.03;;
20956;SDS011;10637;47.970;7.830;2023-04-15T06:27:17;10.80;;;4.40;;
20956;SDS011;10637;47.970;7.830;2023-04-15T06:32:19;9.10;;;3.13;;
20956;SDS011;10637;47.970;7.830;2023-04-15T06:37:21;9.23;;;3.40;;
20956;SDS011;10637;47.970;7.830;2023-04-15T06:42:23;8.47;;;3.23;;
20956;SDS011;10637;47.970;7.830;2023-04-15T06:47:25;8.23;;;3.20;;
20956;SDS011;10637;47.970;7.830;2023-04-15T06:52:27;11.27;;;3.13;;
20956;SDS011;10637;47.970;7.830;2023-04-15T06:57:29;9.23;;;3.47;;
20956;SDS011;10637;47.970;7.830;2023-04-15T07:02:32;13.30;;;3.40;;
20956;SDS011;10637;47.970;7.830;2023-04-15T07:07:34;8.63;;;3.30;;
20956;SDS011;10637;47.970;7.830;2023-04-15T07:12:36;8.23;;;3.10;;
20956;SDS011;10637;47.970;7.830;2023-04-15T07:17:39;8.57;;;3.20;;
20956;SDS011;10637;47.970;7.830;2023-04-15T07:22:42;11.63;;;3.50;;
20956;SDS011;10637;47.970;7.830;2023-04-15T07:27:43;8.47;;;3.20;;
20956;SDS011;10637;47.970;7.830;2023-04-15T07:32:45;9.10;;;3.10;;
20956;SDS011;10637;47.970;7.830;2023-04-15T07:37:47;14.67;;;3.50;;
20956;SDS011;10637;47.970;7.830;2023-04-15T07:42:49;9.40;;;3.20;;
20956;SDS011;10637;47.970;7.830;2023-04-15T07:47:51;12.10;;;3.60;;
20956;SDS011;10637;47.970;7.830;2023-04-15T07:52:53;8.97;;;3.60;;
20956;SDS011;10637;47.970;7.830;2023-04-15T07:57:55;10.57;;;3.13;;
20956;SDS011;10637;47.970;7.830;2023-04-15T08:02:57;8.10;;;3.17;;
20956;SDS011;10637;47.970;7.830;2023-04-15T08:08:00;11.17;;;3.30;;
20956;SDS011;10637;47.970;7.830;2023-04-15T08:13:02;8.00;;;3.30;;
20956;SDS011;10637;47.970;7.830;2023-04-15T08:18:03;8.73;;;3.50;;
20956;SDS011;10637;47.970;7.830;2023-04-15T08:23:05;9.93;;;3.30;;
20956;SDS011;10637;47.970;7.830;2023-04-15T08:28:07;7.63;;;3.13;;
20956;SDS011;10637;47.970;7.830;2023-04-15T08:33:09;9.40;;;3.80;;
20956;SDS011;10637;47.970;7.830;2023-04-15T08:38:11;8.73;;;3.40;;
20956;SDS011;10637;47.970;7.830;2023-04-15T08:43:22;9.83;;;3.30;;
20956;SDS011;10637;47.970;7.830;2023-04-15T08:48:28;10.00;;;3.57;;
20956;SDS011;10637;47.970;7.830;2023-04-15T08:53:32;8.50;;;3.50;;
20956;SDS011;10637;47.970;7.830;2023-04-15T08:58:35;9.17;;;3.80;;
20956;SDS011;10637;47.970;7.830;2023-04-15T09:03:38;11.10;;;3.50;;
20956;SDS011;10637;47.970;7.830;2023-04-15T09:08:41;9.67;;;3.50;;
20956;SDS011;10637;47.970;7.830;2023-04-15T09:13:43;10.30;;;3.40;;
20956;SDS011;10637;47.970;7.830;2023-04-15T09:18:45;10.27;;;3.50;;
20956;SDS011;10637;47.970;7.830;2023-04-15T09:23:54;9.17;;;3.43;;
20956;SDS011;10637;47.970;7.830;2023-04-15T09:29:02;9.30;;;2.97;;
20956;SDS011;10637;47.970;7.830;2023-04-15T09:34:06;9.13;;;3.20;;
20956;SDS011;10637;47.970;7.830;2023-04-15T09:39:08;10.90;;;3.20;;
20956;SDS011;10637;47.970;7.830;2023-04-15T09:44:22;9.53;;;3.43;;
20956;SDS011;10637;47.970;7.830;2023-04-15T09:49:25;8.23;;;2.87;;
20956;SDS011;10637;47.970;7.830;2023-04-15T09:54:32;8.00;;;3.00;;
20956;SDS011;10637;47.970;7.830;2023-04-15T09:59:36;9.07;;;3.03;;
20956;SDS011;10637;47.970;7.830;2023-04-15T10:04:41;7.40;;;2.90;;
20956;SDS011;10637;47.970;7.830;2023-04-15T10:09:44;9.40;;;3.23;;
20956;SDS011;10637;47.970;7.830;2023-04-15T10:14:47;8.73;;;2.90;;
20956;SDS011;10637;47.970;7.830;2023-04-15T10:19:53;8.83;;;3.03;;
20956;SDS011;10637;47.970;7.830;2023-04-15T10:24:55;8.33;;;3.00;;
20956;SDS011;10637;47.970;7.830;2023-04-15T10:29:59;10.60;;;3.67;;
20956;SDS011;10637;47.970;7.830;2023-04-15T10:35:04;8.50;;;2.97;;
20956;SDS011;10637;47.970;7.830;2023-04-15T10:40:22;10.63;;;3.30;;
20956;SDS011;10637;47.970;7.830;2023-04-15T10:45:27;11.27;;;4.13;;
20956;SDS011;10637;47.970;7.830;2023-04-15T10:50:37;8.50;;;2.90;;
20956;SDS011;10637;47.970;7.830;2023-04-15T10:55:39;13.10;;;4.40;;
20956;SDS011;10637;47.970;7.830;2023-04-15T11:00:41;11.53;;;4.20;;
20956;SDS011;10637;47.970;7.830;2023-04-15T11:05:54;7.77;;;3.17;;
20956;SDS011;10637;47.970;7.830;2023-04-15T11:10:57;10.23;;;3.13;;
20956;SDS011;10637;47.970;7.830;2023-04-15T11:15:59;13.57;;;3.43;;
20956;SDS011;10637;47.970;7.830;2023-04-15T11:21:03;10.27;;;3.47;;
20956;SDS011;10637;47.970;7.830;2023-04-15T11:26:07;10.97;;;3.70;;
20956;SDS011;10637;47.970;7.830;2023-04-15T11:31:11;11.93;;;3.90;;
20956;SDS011;10637;47.970;7.830;2023-04-15T11:36:18;10.47;;;3.30;;
20956;SDS011;10637;47.970;7.830;2023-04-15T11:41:20;9.77;;;3.27;;
20956;SDS011;10637;47.970;7.830;2023-04-15T11:46:29;11.60;;;3.73;;
20956;SDS011;10637;47.970;7.830;2023-04-15T11:51:32;8.90;;;3.47;;
20956;SDS011;10637;47.970;7.830;2023-04-15T11:56:35;10.33;;;4.20;;
20956;SDS011;10637;47.970;7.830;2023-04-15T12:01:37;10.10;;;4.00;;
20956;SDS011;10637;47.970;7.830;2023-04-15T12:06:47;10.13;;;3.57;;
20956;SDS011;10637;47.970;7.830;2023-04-15T12:11:55;11.17;;;3.97;;
20956;SDS011;10637;47.970;7.830;2023-04-15T12:16:59;11.40;;;3.70;;
20956;SDS011;10637;47.970;7.830;2023-04-15T12:22:07;9.63;;;3.60;;
20956;SDS011;10637;47.970;7.830;2023-04-15T12:27:10;10.43;;;3.83;;
20956;SDS011;10637;47.970;7.830;2023-04-15T12:32:14;9.53;;;3.67;;
20956;SDS011;10637;47.970;7.830;2023-04-15T12:37:16;7.97;;;3.77;;
20956;SDS011;10637;47.970;7.830;2023-04-15T12:42:18;9.07;;;3.73;;
20956;SDS011;10637;47.970;7.830;2023-04-15T12:47:20;10.67;;;3.80;;
20956;SDS011;10637;47.970;7.830;2023-04-15T12:52:22;11.63;;;3.50;;
20956;SDS011;10637;47.970;7.830;2023-04-15T12:57:25;10.10;;;4.17;;
20956;SDS011;10637;47.970;7.830;2023-04-15T13:02:27;11.50;;;3.90;;
20956;SDS011;10637;47.970;7.830;2023-04-15T13:07:29;10.03;;;3.70;;
20956;SDS011;10637;47.970;7.830;2023-04-15T13:12:31;10.57;;;3.60;;
20956;SDS011;10637;47.970;7.830;2023-04-15T13:17:36;9.87;;;4.03;;
20956;SDS011;10637;47.970;7.830;2023-04-15T13:22:38;8.33;;;3.33;;
20956;SDS011;10637;47.970;7.830;2023-04-15T13:27:40;10.17;;;4.03;;
20956;SDS011;10637;47.970;7.830;2023-04-15T13:32:42;8.30;;;3.63;;
20956;SDS011;10637;47.970;7.830;2023-04-15T13:37:44;10.37;;;3.70;;
20956;SDS011;10637;47.970;7.830;2023-04-15T13:42:47;11.13;;;4.50;;
20956;SDS011;10637;47.970;7.830;2023-04-15T13:47:49;12.93;;;5.20;;
20956;SDS011;10637;47.970;7.830;2023-04-15T13:52:51;11.13;;;4.03;;
20956;SDS011;10637;47.970;7.830;2023-04-15T13:57:52;10.23;;;4.30;;
20956;SDS011;10637;47.970;7.830;2023-04-15T14:02:54;10.13;;;4.50;;
20956;SDS011;10637;47.970;7.830;2023-04-15T14:07:57;12.73;;;4.33;;
20956;SDS011;10637;47.970;7.830;2023-04-15T14:13:00;10.17;;;3.93;;
20956;SDS011;10637;47.970;7.830;2023-04-15T14:18:02;12.13;;;4.60;;
20956;SDS011;10637;47.970;7.830;2023-04-15T14:23:04;8.80;;;3.93;;
20956;SDS011;10637;47.970;7.830;2023-04-15T14:28:05;15.60;;;4.60;;
20956;SDS011;10637;47.970;7.830;2023-04-15T14:33:07;11.97;;;4.33;;
20956;SDS011;10637;47.970;7.830;2023-04-15T14:38:09;10.40;;;4.10;;
20956;SDS011;10637;47.970;7.830;2023-04-15T14:43:11;12.93;;;4.20;;
20956;SDS011;10637;47.970;7.830;2023-04-15T14:48:13;10.43;;;3.93;;
20956;SDS011;10637;47.970;7.830;2023-04-15T14:53:15;12.23;;;4.40;;
20956;SDS011;10637;47.970;7.830;2023-04-15T14:58:17;11.07;;;3.80;;
20956;SDS011;10637;47.970;7.830;2023-04-15T15:03:19;9.27;;;4.20;;
20956;SDS011;10637;47.970;7.830;2023-04-15T15:08:21;10.10;;;3.47;;
20956;SDS011;10637;47.970;7.830;2023-04-15T15:13:23;11.77;;;3.70;;
20956;SDS011;10637;47.970;7.830;2023-04-15T15:18:25;10.57;;;3.67;;
20956;SDS011;10637;47.970;7.830;2023-04-15T15:23:27;10.00;;;3.43;;
20956;SDS011;10637;47.970;7.830;2023-04-15T15:28:29;9.03;;;3.30;;
20956;SDS011;10637;47.970;7.830;2023-04-15T15:33:31;10.10;;;3.10;;
20956;SDS011;10637;47.970;7.830;2023-04-15T15:38:33;9.60;;;3.57;;
20956;SDS011;10637;47.970;7.830;2023-04-15T15:43:34;8.67;;;3.10;;
20956;SDS011;10637;47.970;7.830;2023-04-15T15:48:36;9.33;;;3.10;;
20956;SDS011;10637;47.970;7.830;2023-04-15T15:53:38;8.57;;;3.23;;
20956;SDS011;10637;47.970;7.830;2023-04-15T15:58:40;8.40;;;3.27;;
20956;SDS011;10637;47.970;7.830;2023-04-15T16:03:44;10.90;;;3.43;;
20956;SDS011;10637;47.970;7.830;2023-04-15T16:08:45;10.10;;;3.50;;
20956;SDS011;10637;47.970;7.830;2023-04-15T16:13:47;9.13;;;3.10;;
20956;SDS011;10637;47.970;7.830;2023-04-15T16:18:49;8.63;;;3.30;;
20956;SDS011;10637;47.970;7.830;2023-04-15T16:23:51;8.17;;;2.80;;
20956;SDS011;10637;47.970;7.830;2023-04-15T16:28:53;8.77;;;3.00;;
20956;SDS011;10637;47.970;7.830;2023-04-15T16:33:54;8.90;;;3.27;;
20956;SDS011;10637;47.970;7.830;2023-04-15T16:38:57;9.23;;;3.10;;
20956;SDS011;10637;47.970;7.830;2023-04-15T16:43:59;10.30;;;2.90;;
20956;SDS011;10637;47.970;7.830;2023-04-15T16:49:03;10.47;;;3.40;;
20956;SDS011;10637;47.970;7.830;2023-04-15T16:54:05;9.43;;;3.50;;
20956;SDS011;10637;47.970;7.830;2023-04-15T16:59:07;10.97;;;3.57;;
20956;SDS011;10637;47.970;7.830;2023-04-15T17:04:08;9.67;;;3.10;;
20956;SDS011;10637;47.970;7.830;2023-04-15T17:09:10;8.37;;;3.60;;
20956;SDS011;10637;47.970;7.830;2023-04-15T17:14:12;9.53;;;3.47;;
20956;SDS011;10637;47.970;7.830;2023-04-15T17:19:14;8.27;;;3.17;;
20956;SDS011;10637;47.970;7.830;2023-04-15T17:24:16;11.70;;;3.43;;
20956;SDS011;10637;47.970;7.830;2023-04-15T17:29:18;7.60;;;2.93;;
20956;SDS011;10637;47.970;7.830;2023-04-15T17:34:20;10.43;;;3.20;;
20956;SDS011;10637;47.970;7.830;2023-04-15T17:39:22;8.57;;;3.47;;
20956;SDS011;10637;47.970;7.830;2023-04-15T17:44:24;11.70;;;3.50;;
20956;SDS011;10637;47.970;7.830;2023-04-15T17:49:25;7.97;;;2.87;;
20956;SDS011;10637;47.970;7.830;2023-04-15T17:54:27;11.17;;;2.90;;
20956;SDS011;10637;47.970;7.830;2023-04-15T17:59:29;8.87;;;2.93;;
20956;SDS011;10637;47.970;7.830;2023-04-15T18:04:31;8.87;;;3.20;;
20956;SDS011;10637;47.970;7.830;2023-04-15T18:09:33;7.23;;;2.80;;
20956;SDS011;10637;47.970;7.830;2023-04-15T18:14:35;10.90;;;2.93;;
20956;SDS011;10637;47.970;7.830;2023-04-15T18:19:37;7.90;;;3.10;;
20956;SDS011;10637;47.970;7.830;2023-04-15T18:24:38;8.03;;;2.90;;
20956;SDS011;10637;47.970;7.830;2023-04-15T18:29:40;8.80;;;2.73;;
20956;SDS011;10637;47.970;7.830;2023-04-15T18:34:43;8.87;;;2.90;;
20956;SDS011;10637;47.970;7.830;2023-04-15T18:39:44;7.17;;;3.00;;
20956;SDS011;10637;47.970;7.830;2023-04-15T18:44:46;8.03;;;3.10;;
20956;SDS011;10637;47.970;7.830;2023-04-15T18:49:48;9.00;;;3.00;;
20956;SDS011;10637;47.970;7.830;2023-04-15T18:54:50;7.73;;;3.30;;
20956;SDS011;10637;47.970;7.830;2023-04-15T18:59:52;9.07;;;3.17;;
20956;SDS011;10637;47.970;7.830;2023-04-15T19:04:54;8.30;;;3.23;;
20956;SDS011;10637;47.970;7.830;2023-04-15T19:09:56;8.67;;;3.33;;
20956;SDS011;10637;47.970;7.830;2023-04-15T19:14:58;8.50;;;3.20;;
20956;SDS011;10637;47.970;7.830;2023-04-15T19:19:59;8.20;;;3.00;;
20956;SDS011;10637;47.970;7.830;2023-04-15T19:25:02;7.23;;;3.00;;
20956;SDS011;10637;47.970;7.830;2023-04-15T19:30:04;8.40;;;3.07;;
20956;SDS011;10637;47.970;7.830;2023-04-15T19:35:07;8.50;;;2.93;;
20956;SDS011;10637;47.970;7.830;2023-04-15T19:40:11;8.93;;;3.30;;
20956;SDS011;10637;47.970;7.830;2023-04-15T19:45:13;10.73;;;3.33;;
20956;SDS011;10637;47.970;7.830;2023-04-15T19:50:16;7.57;;;2.90;;
20956;SDS011;10637;47.970;7.830;2023-04-15T19:55:19;7.70;;;3.17;;
20956;SDS011;10637;47.970;7.830;2023-04-15T20:00:21;8.00;;;3.70;;
20956;SDS011;10637;47.970;7.830;2023-04-15T20:05:23;9.90;;;3.70;;
20956;SDS011;10637;47.970;7.830;2023-04-15T20:10:25;9.50;;;3.40;;
20956;SDS011;10637;47.970;7.830;2023-04-15T20:15:27;10.40;;;3.40;;
20956;SDS011;10637;47.970;7.830;2023-04-15T20:20:29;11.23;;;4.10;;
20956;SDS011;10637;47.970;7.830;2023-04-15T20:25:31;9.73;;;4.13;;
20956;SDS011;10637;47.970;7.830;2023-04-15T20:30:32;9.67;;;4.10;;
20956;SDS011;10637;47.970;7.830;2023-04-15T20:35:34;7.40;;;3.20;;
20956;SDS011;10637;47.970;7.830;2023-04-15T20:40:36;10.93;;;3.10;;
20956;SDS011;10637;47.970;7.830;2023-04-15T20:45:40;7.63;;;3.03;;
20956;SDS011;10637;47.970;7.830;2023-04-15T20:50:42;7.80;;;3.30;;
20956;SDS011;10637;47.970;7.830;2023-04-15T20:55:44;6.63;;;3.03;;
20956;SDS011;10637;47.970;7.830;2023-04-15T21:00:45;6.77;;;3.20;;
20956;SDS011;10637;47.970;7.830;2023-04-15T21:05:47;7.80;;;3.53;;
20956;SDS011;10637;47.970;7.830;2023-04-15T21:10:49;8.17;;;3.40;;
20956;SDS011;10637;47.970;7.830;2023-04-15T21:15:51;8.40;;;3.27;;
20956;SDS011;10637;47.970;7.830;2023-04-15T21:20:58;7.27;;;3.30;;
20956;SDS011;10637;47.970;7.830;2023-04-15T21:26:01;9.07;;;3.53;;
20956;SDS011;10637;47.970;7.830;2023-04-15T21:31:03;7.07;;;3.13;;
20956;SDS011;10637;47.970;7.830;2023-04-15T21:36:04;7.00;;;3.50;;
20956;SDS011;10637;47.970;7.830;2023-04-15T21:41:06;8.60;;;4.20;;
20956;SDS011;10637;47.970;7.830;2023-04-15T21:46:09;7.83;;;3.80;;
20956;SDS011;10637;47.970;7.830;2023-04-15T21:51:24;8.63;;;4.70;;
20956;SDS011;10637;47.970;7.830;2023-04-15T21:56:27;8.80;;;4.90;;
20956;SDS011;10637;47.970;7.830;2023-04-15T22:01:28;8.90;;;4.97;;
20956;SDS011;10637;47.970;7.830;2023-04-15T22:06:30;9.20;;;5.30;;
20956;SDS011;10637;47.970;7.830;2023-04-15T22:11:32;9.67;;;6.10;;
20956;SDS011;10637;47.970;7.830;2023-04-15T22:16:34;10.20;;;6.20;;
20956;SDS011;10637;47.970;7.830;2023-04-15T22:21:36;10.77;;;6.97;;
20956;SDS011;10637;47.970;7.830;2023-04-15T22:26:37;11.70;;;7.40;;
20956;SDS011;10637;47.970;7.830;2023-04-15T22:31:39;12.50;;;7.57;;
20956;SDS011;10637;47.970;7.830;2023-04-15T22:36:42;14.37;;;9.20;;
20956;SDS011;10637;47.970;7.830;2023-04-15T22:41:44;12.67;;;8.30;;
20956;SDS011;10637;47.970;7.830;2023-04-15T22:46:46;12.83;;;8.20;;
20956;SDS011;10637;47.970;7.830;2023-04-15T22:51:51;13.80;;;8.83;;
20956;SDS011;10637;47.970;7.830;2023-04-15T22:56:52;14.43;;;9.60;;
20956;SDS011;10637;47.970;7.830;2023-04-15T23:01:54;15.33;;;9.63;;
20956;SDS011;10637;47.970;7.830;2023-04-15T23:06:58;15.70;;;11.13;;
20956;SDS011;10637;47.970;7.830;2023-04-15T23:11:59;15.23;;;10.67;;
20956;SDS011;10637;47.970;7.830;2023-04-15T23:17:02;15.37;;;10.53;;
20956;SDS011;10637;47.970;7.830;2023-04-15T23:22:04;16.57;;;11.10;;
20956;SDS011;10637;47.970;7.830;2023-04-15T23:27:07;15.47;;;11.03;;
20956;SDS011;10637;47.970;7.830;2023-04-15T23:32:08;17.23;;;11.10;;
20956;SDS011;10637;47.970;7.830;2023-04-15T23:37:10;17.37;;;11.77;;
20956;SDS011;10637;47.970;7.830;2023-04-15T23:42:12;21.30;;;12.80;;
20956;SDS011;10637;47.970;7.830;2023-04-15T23:47:14;19.73;;;12.87;;
20956;SDS011;10637;47.970;7.830;2023-04-15T23:52:15;21.17;;;13.67;;
20956;SDS011;10637;47.970;7.830;2023-04-15T23:57:17;22.87;;;13.53;;
